sensor_id;sensor_type;location;lat;lon;timestamp;pressure;altitude;pressure_sealevel;temperature;humidity
59029;BME280;45919;51.420;5.454;2023-02-03T00:00:13;102396.72;;;9.50;80.46
59029;BME280;45919;51.420;5.454;2023-02-03T00:01:15;102389.72;;;9.49;80.50
59029;BME280;45919;51.420;5.454;2023-02-03T00:02:17;102389.66;;;9.48;80.45
59029;BME280;45919;51.420;5.454;2023-02-03T00:03:18;102388.88;;;9.50;80.57
59029;BME280;45919;51.420;5.454;2023-02-03T00:04:20;102387.03;;;9.48;80.56
59029;BME280;45919;51.420;5.454;2023-02-03T00:05:21;102378.38;;;9.49;80.56
59029;BME280;45919;51.420;5.454;2023-02-03T00:06:23;102376.69;;;9.49;80.74
59029;BME280;45919;51.420;5.454;2023-02-03T00:07:25;102382.84;;;9.51;80.37
59029;BME280;45919;51.420;5.454;2023-02-03T00:08:27;102374.06;;;9.49;80.59
59029;BME280;45919;51.420;5.454;2023-02-03T00:09:29;102377.69;;;9.53;80.62
59029;BME280;45919;51.420;5.454;2023-02-03T00:10:31;102379.34;;;9.51;80.36
59029;BME280;45919;51.420;5.454;2023-02-03T00:11:33;102381.13;;;9.52;80.54
59029;BME280;45919;51.420;5.454;2023-02-03T00:12:34;102382.03;;;9.52;80.45
59029;BME280;45919;51.420;5.454;2023-02-03T00:13:36;102379.34;;;9.51;80.33
59029;BME280;45919;51.420;5.454;2023-02-03T00:14:37;102388.06;;;9.51;80.63
59029;BME280;45919;51.420;5.454;2023-02-03T00:15:39;102386.28;;;9.50;80.51
59029;BME280;45919;51.420;5.454;2023-02-03T00:16:40;102382.69;;;9.48;80.38
59029;BME280;45919;51.420;5.454;2023-02-03T00:17:41;102381.00;;;9.49;80.49
59029;BME280;45919;51.420;5.454;2023-02-03T00:18:43;102380.03;;;9.47;80.28
59029;BME280;45919;51.420;5.454;2023-02-03T00:19:44;102378.25;;;9.45;80.42
59029;BME280;45919;51.420;5.454;2023-02-03T00:20:46;102371.22;;;9.44;80.62
59029;BME280;45919;51.420;5.454;2023-02-03T00:21:47;102372.13;;;9.45;80.59
59029;BME280;45919;51.420;5.454;2023-02-03T00:22:49;102381.81;;;9.48;80.57
59029;BME280;45919;51.420;5.454;2023-02-03T00:23:50;102381.88;;;9.49;80.55
59029;BME280;45919;51.420;5.454;2023-02-03T00:24:52;102379.28;;;9.49;80.58
59029;BME280;45919;51.420;5.454;2023-02-03T00:25:53;102387.16;;;9.51;80.59
59029;BME280;45919;51.420;5.454;2023-02-03T00:26:54;102386.28;;;9.50;80.48
59029;BME280;45919;51.420;5.454;2023-02-03T00:27:56;102385.47;;;9.51;80.65
59029;BME280;45919;51.420;5.454;2023-02-03T00:28:58;102386.34;;;9.52;80.50
59029;BME280;45919;51.420;5.454;2023-02-03T00:30:00;102400.22;;;9.51;80.51
59029;BME280;45919;51.420;5.454;2023-02-03T00:31:01;102397.59;;;9.51;80.37
59029;BME280;45919;51.420;5.454;2023-02-03T00:32:03;102398.50;;;9.51;80.28
59029;BME280;45919;51.420;5.454;2023-02-03T00:33:04;102394.16;;;9.52;80.27
59029;BME280;45919;51.420;5.454;2023-02-03T00:34:06;102401.13;;;9.51;80.36
59029;BME280;45919;51.420;5.454;2023-02-03T00:35:07;102396.72;;;9.50;80.45
59029;BME280;45919;51.420;5.454;2023-02-03T00:36:09;102397.66;;;9.52;80.48
59029;BME280;45919;51.420;5.454;2023-02-03T00:37:13;102391.72;;;9.55;80.52
59029;BME280;45919;51.420;5.454;2023-02-03T00:38:15;102401.91;;;9.50;80.14
59029;BME280;45919;51.420;5.454;2023-02-03T00:39:16;102402.75;;;9.49;80.42
59029;BME280;45919;51.420;5.454;2023-02-03T00:40:18;102393.97;;;9.47;80.36
59029;BME280;45919;51.420;5.454;2023-02-03T00:41:20;102400.16;;;9.49;80.50
59029;BME280;45919;51.420;5.454;2023-02-03T00:42:21;102399.25;;;9.49;80.81
59029;BME280;45919;51.420;5.454;2023-02-03T00:43:23;102405.25;;;9.46;80.69
59029;BME280;45919;51.420;5.454;2023-02-03T00:44:24;102411.38;;;9.48;80.66
59029;BME280;45919;51.420;5.454;2023-02-03T00:45:25;102409.63;;;9.47;80.50
59029;BME280;45919;51.420;5.454;2023-02-03T00:46:27;102404.47;;;9.49;80.75
59029;BME280;45919;51.420;5.454;2023-02-03T00:47:29;102409.63;;;9.47;80.59
59029;BME280;45919;51.420;5.454;2023-02-03T00:48:30;102414.00;;;9.48;80.70
59029;BME280;45919;51.420;5.454;2023-02-03T00:49:31;102405.38;;;9.49;80.84
59029;BME280;45919;51.420;5.454;2023-02-03T00:50:33;102407.97;;;9.49;80.60
59029;BME280;45919;51.420;5.454;2023-02-03T00:51:34;102406.28;;;9.50;80.63
59029;BME280;45919;51.420;5.454;2023-02-03T00:52:36;102414.00;;;9.48;80.60
59029;BME280;45919;51.420;5.454;2023-02-03T00:53:37;102407.00;;;9.47;80.42
59029;BME280;45919;51.420;5.454;2023-02-03T00:54:39;102400.22;;;9.51;80.76
59029;BME280;45919;51.420;5.454;2023-02-03T00:55:43;102407.31;;;9.53;80.56
59029;BME280;45919;51.420;5.454;2023-02-03T00:56:45;102407.19;;;9.52;80.42
59029;BME280;45919;51.420;5.454;2023-02-03T00:57:46;102409.75;;;9.50;80.49
59029;BME280;45919;51.420;5.454;2023-02-03T00:58:47;102415.13;;;9.53;80.85
59029;BME280;45919;51.420;5.454;2023-02-03T00:59:49;102404.53;;;9.50;80.51
59029;BME280;45919;51.420;5.454;2023-02-03T01:00:50;102409.63;;;9.47;80.36
59029;BME280;45919;51.420;5.454;2023-02-03T01:01:55;102411.50;;;9.50;80.61
59029;BME280;45919;51.420;5.454;2023-02-03T01:02:56;102414.97;;;9.50;80.50
59029;BME280;45919;51.420;5.454;2023-02-03T01:03:58;102409.91;;;9.53;80.79
59029;BME280;45919;51.420;5.454;2023-02-03T01:05:00;102410.72;;;9.52;80.66
59029;BME280;45919;51.420;5.454;2023-02-03T01:06:11;102416.00;;;9.54;80.57
59029;BME280;45919;51.420;5.454;2023-02-03T01:07:13;102416.00;;;9.54;80.41
59029;BME280;45919;51.420;5.454;2023-02-03T01:08:14;102424.78;;;9.56;80.78
59029;BME280;45919;51.420;5.454;2023-02-03T01:09:16;102414.34;;;9.56;80.82
59029;BME280;45919;51.420;5.454;2023-02-03T01:10:17;102424.72;;;9.54;80.44
59029;BME280;45919;51.420;5.454;2023-02-03T01:11:23;102425.81;;;9.60;80.43
59029;BME280;45919;51.420;5.454;2023-02-03T01:12:25;102428.38;;;9.58;80.44
59029;BME280;45919;51.420;5.454;2023-02-03T01:13:28;102421.28;;;9.55;80.56
59029;BME280;45919;51.420;5.454;2023-02-03T01:14:30;102426.44;;;9.54;80.45
59029;BME280;45919;51.420;5.454;2023-02-03T01:15:31;102433.53;;;9.56;80.38
59029;BME280;45919;51.420;5.454;2023-02-03T01:16:33;102431.09;;;9.61;80.28
59029;BME280;45919;51.420;5.454;2023-02-03T01:17:38;102425.16;;;9.64;80.12
59029;BME280;45919;51.420;5.454;2023-02-03T01:18:39;102430.22;;;9.61;80.22
59029;BME280;45919;51.420;5.454;2023-02-03T01:19:41;102417.94;;;9.58;80.05
59029;BME280;45919;51.420;5.454;2023-02-03T01:20:42;102419.63;;;9.57;80.40
59029;BME280;45919;51.420;5.454;2023-02-03T01:21:44;102430.22;;;9.61;80.35
59029;BME280;45919;51.420;5.454;2023-02-03T01:22:46;102432.69;;;9.57;80.16
59029;BME280;45919;51.420;5.454;2023-02-03T01:23:49;102419.69;;;9.59;80.37
59029;BME280;45919;51.420;5.454;2023-02-03T01:24:50;102429.47;;;9.63;80.16
59029;BME280;45919;51.420;5.454;2023-02-03T01:25:52;102431.09;;;9.61;80.24
59029;BME280;45919;51.420;5.454;2023-02-03T01:26:53;102441.47;;;9.60;79.96
59029;BME280;45919;51.420;5.454;2023-02-03T01:27:55;102437.16;;;9.60;80.37
59029;BME280;45919;51.420;5.454;2023-02-03T01:28:57;102428.72;;;9.66;80.22
59029;BME280;45919;51.420;5.454;2023-02-03T01:29:59;102423.81;;;9.74;79.49
59029;BME280;45919;51.420;5.454;2023-02-03T01:32:11;102428.91;;;9.71;79.62
59029;BME280;45919;51.420;5.454;2023-02-03T01:33:12;102418.47;;;9.71;79.38
59029;BME280;45919;51.420;5.454;2023-02-03T01:34:14;102429.25;;;9.78;79.02
59029;BME280;45919;51.420;5.454;2023-02-03T01:35:17;102425.56;;;9.73;79.05
59029;BME280;45919;51.420;5.454;2023-02-03T01:36:19;102419.44;;;9.73;79.11
59029;BME280;45919;51.420;5.454;2023-02-03T01:37:20;102413.25;;;9.71;79.33
59029;BME280;45919;51.420;5.454;2023-02-03T01:38:22;102411.41;;;9.68;79.22
59029;BME280;45919;51.420;5.454;2023-02-03T01:39:23;102407.91;;;9.67;79.26
59029;BME280;45919;51.420;5.454;2023-02-03T01:40:26;102421.97;;;9.71;79.33
59029;BME280;45919;51.420;5.454;2023-02-03T01:41:29;102413.19;;;9.69;79.35
59029;BME280;45919;51.420;5.454;2023-02-03T01:42:31;102418.34;;;9.67;79.50
59029;BME280;45919;51.420;5.454;2023-02-03T01:44:44;102421.16;;;9.72;79.22
59029;BME280;45919;51.420;5.454;2023-02-03T01:45:46;102412.44;;;9.72;79.40
59029;BME280;45919;51.420;5.454;2023-02-03T01:46:47;102423.75;;;9.72;79.16
59029;BME280;45919;51.420;5.454;2023-02-03T01:47:51;102418.41;;;9.69;79.06
59029;BME280;45919;51.420;5.454;2023-02-03T01:48:56;102412.28;;;9.68;79.09
59029;BME280;45919;51.420;5.454;2023-02-03T01:50:05;102422.72;;;9.68;79.42
59029;BME280;45919;51.420;5.454;2023-02-03T01:51:09;102413.94;;;9.66;79.15
59029;BME280;45919;51.420;5.454;2023-02-03T01:52:10;102417.44;;;9.67;79.25
59029;BME280;45919;51.420;5.454;2023-02-03T01:53:12;102416.47;;;9.65;79.26
59029;BME280;45919;51.420;5.454;2023-02-03T01:54:18;102411.41;;;9.68;79.04
59029;BME280;45919;51.420;5.454;2023-02-03T01:55:22;102406.03;;;9.65;79.27
59029;BME280;45919;51.420;5.454;2023-02-03T01:56:26;102400.00;;;9.66;79.28
59029;BME280;45919;51.420;5.454;2023-02-03T01:57:34;102400.81;;;9.65;79.19
59029;BME280;45919;51.420;5.454;2023-02-03T01:58:37;102402.41;;;9.61;79.11
59029;BME280;45919;51.420;5.454;2023-02-03T01:59:39;102404.22;;;9.62;79.43
59029;BME280;45919;51.420;5.454;2023-02-03T02:00:42;102401.59;;;9.62;79.39
59029;BME280;45919;51.420;5.454;2023-02-03T02:01:44;102408.59;;;9.63;79.23
59029;BME280;45919;51.420;5.454;2023-02-03T02:02:46;102410.38;;;9.64;79.20
59029;BME280;45919;51.420;5.454;2023-02-03T02:03:50;102405.16;;;9.64;79.19
59029;BME280;45919;51.420;5.454;2023-02-03T02:04:55;102403.44;;;9.65;79.36
59029;BME280;45919;51.420;5.454;2023-02-03T02:06:01;102412.16;;;9.65;79.33
59029;BME280;45919;51.420;5.454;2023-02-03T02:07:04;102406.19;;;9.68;79.05
59029;BME280;45919;51.420;5.454;2023-02-03T02:08:06;102397.34;;;9.64;79.00
59029;BME280;45919;51.420;5.454;2023-02-03T02:09:09;102385.94;;;9.62;79.38
59029;BME280;45919;51.420;5.454;2023-02-03T02:10:10;102381.69;;;9.64;79.28
59029;BME280;45919;51.420;5.454;2023-02-03T02:11:12;102374.66;;;9.63;79.27
59029;BME280;45919;51.420;5.454;2023-02-03T02:12:13;102373.75;;;9.63;79.24
59029;BME280;45919;51.420;5.454;2023-02-03T02:13:15;102376.59;;;9.67;79.23
59029;BME280;45919;51.420;5.454;2023-02-03T02:14:18;102368.69;;;9.66;79.09
59029;BME280;45919;51.420;5.454;2023-02-03T02:15:19;102362.53;;;9.64;79.05
59029;BME280;45919;51.420;5.454;2023-02-03T02:19:39;102349.13;;;9.56;79.18
59029;BME280;45919;51.420;5.454;2023-02-03T02:20:49;102358.88;;;9.60;79.05
59029;BME280;45919;51.420;5.454;2023-02-03T02:22:12;102363.22;;;9.60;78.93
59029;BME280;45919;51.420;5.454;2023-02-03T02:24:42;102361.38;;;9.57;79.04
59029;BME280;45919;51.420;5.454;2023-02-03T02:27:01;102373.56;;;9.58;79.21
59029;BME280;45919;51.420;5.454;2023-02-03T02:31:45;102381.53;;;9.61;78.74
59029;BME280;45919;51.420;5.454;2023-02-03T02:36:29;102370.47;;;9.67;78.67
59029;BME280;45919;51.420;5.454;2023-02-03T02:38:40;102380.00;;;9.66;78.38
59029;BME280;45919;51.420;5.454;2023-02-03T02:40:09;102384.41;;;9.67;78.50
59029;BME280;45919;51.420;5.454;2023-02-03T02:41:19;102372.19;;;9.66;78.39
59029;BME280;45919;51.420;5.454;2023-02-03T02:42:25;102371.16;;;9.63;78.59
59029;BME280;45919;51.420;5.454;2023-02-03T02:45:22;102379.94;;;9.65;78.62
59029;BME280;45919;51.420;5.454;2023-02-03T02:46:29;102381.03;;;9.70;78.29
59029;BME280;45919;51.420;5.454;2023-02-03T02:47:32;102391.34;;;9.67;78.28
59029;BME280;45919;51.420;5.454;2023-02-03T02:50:42;102403.59;;;9.68;78.46
59029;BME280;45919;51.420;5.454;2023-02-03T02:51:45;102401.78;;;9.67;78.46
59029;BME280;45919;51.420;5.454;2023-02-03T02:52:48;102401.78;;;9.67;78.51
59029;BME280;45919;51.420;5.454;2023-02-03T02:53:53;102399.19;;;9.67;78.64
59029;BME280;45919;51.420;5.454;2023-02-03T02:54:57;102402.63;;;9.66;78.66
59029;BME280;45919;51.420;5.454;2023-02-03T02:56:02;102396.78;;;9.72;78.31
59029;BME280;45919;51.420;5.454;2023-02-03T02:57:05;102395.09;;;9.74;78.16
59029;BME280;45919;51.420;5.454;2023-02-03T02:58:10;102384.63;;;9.72;78.24
59029;BME280;45919;51.420;5.454;2023-02-03T02:59:13;102306.03;;;9.25;78.19
59029;BME280;45919;51.420;5.454;2023-02-03T03:00:15;102373.16;;;9.68;78.19
59029;BME280;45919;51.420;5.454;2023-02-03T03:01:16;102365.31;;;9.68;78.22
59029;BME280;45919;51.420;5.454;2023-02-03T03:02:19;102367.25;;;9.73;78.28
59029;BME280;45919;51.420;5.454;2023-02-03T03:03:22;102380.41;;;9.76;77.78
59029;BME280;45919;51.420;5.454;2023-02-03T03:04:24;102370.88;;;9.76;77.61
59029;BME280;45919;51.420;5.454;2023-02-03T03:05:27;102367.31;;;9.74;77.72
59029;BME280;45919;51.420;5.454;2023-02-03T03:06:37;102369.91;;;9.74;77.77
59029;BME280;45919;51.420;5.454;2023-02-03T03:07:42;102361.97;;;9.71;77.59
59029;BME280;45919;51.420;5.454;2023-02-03T03:08:50;102367.25;;;9.73;77.82
59029;BME280;45919;51.420;5.454;2023-02-03T03:09:55;102374.09;;;9.71;77.74
59029;BME280;45919;51.420;5.454;2023-02-03T03:10:57;102366.34;;;9.72;78.05
59029;BME280;45919;51.420;5.454;2023-02-03T03:13:12;102384.53;;;9.71;77.89
59029;BME280;45919;51.420;5.454;2023-02-03T03:14:16;102375.00;;;9.71;77.60
59029;BME280;45919;51.420;5.454;2023-02-03T03:15:20;102374.09;;;9.71;77.70
59029;BME280;45919;51.420;5.454;2023-02-03T03:16:23;102389.91;;;9.74;77.69
59029;BME280;45919;51.420;5.454;2023-02-03T03:17:30;102396.97;;;9.76;77.65
59029;BME280;45919;51.420;5.454;2023-02-03T03:18:36;102395.09;;;9.74;77.68
59029;BME280;45919;51.420;5.454;2023-02-03T03:19:41;102396.91;;;9.75;77.91
59029;BME280;45919;51.420;5.454;2023-02-03T03:20:44;102397.81;;;9.75;77.58
59029;BME280;45919;51.420;5.454;2023-02-03T03:21:54;102396.91;;;9.75;77.73
59029;BME280;45919;51.420;5.454;2023-02-03T03:22:58;102388.19;;;9.74;77.78
59029;BME280;45919;51.420;5.454;2023-02-03T03:24:01;102390.00;;;9.75;77.63
59029;BME280;45919;51.420;5.454;2023-02-03T03:25:07;102385.56;;;9.74;77.78
59029;BME280;45919;51.420;5.454;2023-02-03T03:26:19;102393.41;;;9.74;77.76
59029;BME280;45919;51.420;5.454;2023-02-03T03:27:23;102388.41;;;9.79;77.57
59029;BME280;45919;51.420;5.454;2023-02-03T03:28:34;102384.00;;;9.78;77.67
59029;BME280;45919;51.420;5.454;2023-02-03T03:30:01;102376.09;;;9.76;77.61
59029;BME280;45919;51.420;5.454;2023-02-03T03:31:00;102379.59;;;9.77;77.56
59029;BME280;45919;51.420;5.454;2023-02-03T03:32:02;102381.44;;;9.79;77.78
59029;BME280;45919;51.420;5.454;2023-02-03T03:33:04;102379.84;;;9.83;77.40
59029;BME280;45919;51.420;5.454;2023-02-03T03:34:07;102379.84;;;9.83;77.48
59029;BME280;45919;51.420;5.454;2023-02-03T03:35:09;102385.97;;;9.84;77.39
59029;BME280;45919;51.420;5.454;2023-02-03T03:36:13;102380.88;;;9.87;76.79
59029;BME280;45919;51.420;5.454;2023-02-03T03:37:22;102376.38;;;9.83;76.90
59029;BME280;45919;51.420;5.454;2023-02-03T03:38:29;102373.00;;;9.85;76.87
59029;BME280;45919;51.420;5.454;2023-02-03T03:39:36;102368.63;;;9.84;77.07
59029;BME280;45919;51.420;5.454;2023-02-03T03:40:44;102355.56;;;9.84;76.89
59029;BME280;45919;51.420;5.454;2023-02-03T03:42:59;102364.34;;;9.86;76.79
59029;BME280;45919;51.420;5.454;2023-02-03T03:44:03;102369.56;;;9.86;76.64
59029;BME280;45919;51.420;5.454;2023-02-03T03:45:08;102376.28;;;9.81;76.86
59029;BME280;45919;51.420;5.454;2023-02-03T03:46:15;102368.44;;;9.81;76.94
59029;BME280;45919;51.420;5.454;2023-02-03T03:47:22;102371.91;;;9.80;77.06
59029;BME280;45919;51.420;5.454;2023-02-03T03:48:28;102358.00;;;9.81;77.10
59029;BME280;45919;51.420;5.454;2023-02-03T03:49:33;102362.53;;;9.85;76.80
59029;BME280;45919;51.420;5.454;2023-02-03T03:50:37;102362.44;;;9.82;76.79
59029;BME280;45919;51.420;5.454;2023-02-03T03:51:55;102353.00;;;9.86;76.81
59029;BME280;45919;51.420;5.454;2023-02-03T03:52:59;102349.72;;;9.90;76.58
59029;BME280;45919;51.420;5.454;2023-02-03T03:54:06;102346.09;;;9.86;76.79
59029;BME280;45919;51.420;5.454;2023-02-03T03:55:09;102343.59;;;9.89;76.52
59029;BME280;45919;51.420;5.454;2023-02-03T03:56:13;102345.41;;;9.92;76.40
59029;BME280;45919;51.420;5.454;2023-02-03T03:57:24;102339.34;;;9.91;76.33
59029;BME280;45919;51.420;5.454;2023-02-03T03:58:28;102340.91;;;9.88;76.23
59029;BME280;45919;51.420;5.454;2023-02-03T03:59:30;102341.59;;;9.84;76.50
59029;BME280;45919;51.420;5.454;2023-02-03T04:00:33;102341.88;;;9.90;76.25
59029;BME280;45919;51.420;5.454;2023-02-03T04:01:36;102346.94;;;9.87;76.38
59029;BME280;45919;51.420;5.454;2023-02-03T04:02:39;102353.06;;;9.87;76.38
59029;BME280;45919;51.420;5.454;2023-02-03T04:03:43;102352.16;;;9.87;76.15
59029;BME280;45919;51.420;5.454;2023-02-03T04:04:46;102357.28;;;9.84;76.22
59029;BME280;45919;51.420;5.454;2023-02-03T04:05:48;102359.13;;;9.86;76.57
59029;BME280;45919;51.420;5.454;2023-02-03T04:06:51;102365.16;;;9.85;76.22
59029;BME280;45919;51.420;5.454;2023-02-03T04:07:53;102355.56;;;9.84;76.43
59029;BME280;45919;51.420;5.454;2023-02-03T04:08:54;102363.56;;;9.89;76.00
59029;BME280;45919;51.420;5.454;2023-02-03T04:09:56;102366.19;;;9.89;76.03
59029;BME280;45919;51.420;5.454;2023-02-03T04:10:57;102353.00;;;9.86;76.22
59029;BME280;45919;51.420;5.454;2023-02-03T04:11:59;102352.94;;;9.84;76.09
59029;BME280;45919;51.420;5.454;2023-02-03T04:13:04;102353.00;;;9.86;76.40
59029;BME280;45919;51.420;5.454;2023-02-03T04:14:05;102356.38;;;9.83;76.37
59029;BME280;45919;51.420;5.454;2023-02-03T04:15:07;102365.16;;;9.85;76.30
59029;BME280;45919;51.420;5.454;2023-02-03T04:16:09;102372.19;;;9.86;76.31
59029;BME280;45919;51.420;5.454;2023-02-03T04:17:10;102380.13;;;9.89;76.26
59029;BME280;45919;51.420;5.454;2023-02-03T04:18:13;102380.00;;;9.86;76.34
59029;BME280;45919;51.420;5.454;2023-02-03T04:19:14;102380.94;;;9.88;76.18
59029;BME280;45919;51.420;5.454;2023-02-03T04:20:16;102383.66;;;9.90;76.21
59029;BME280;45919;51.420;5.454;2023-02-03T04:21:17;102377.59;;;9.91;76.12
59029;BME280;45919;51.420;5.454;2023-02-03T04:22:19;102369.75;;;9.91;75.67
59029;BME280;45919;51.420;5.454;2023-02-03T04:23:20;102366.41;;;9.93;75.79
59029;BME280;45919;51.420;5.454;2023-02-03T04:24:22;102353.34;;;9.93;75.72
59029;BME280;45919;51.420;5.454;2023-02-03T04:25:23;102351.41;;;9.89;75.70
59029;BME280;45919;51.420;5.454;2023-02-03T04:26:25;102361.97;;;9.92;75.90
59029;BME280;45919;51.420;5.454;2023-02-03T04:27:27;102371.84;;;10.00;75.17
59029;BME280;45919;51.420;5.454;2023-02-03T04:28:28;102374.28;;;9.95;75.59
59029;BME280;45919;51.420;5.454;2023-02-03T04:29:30;102368.22;;;9.96;75.50
59029;BME280;45919;51.420;5.454;2023-02-03T04:30:31;102365.69;;;9.98;75.51
59029;BME280;45919;51.420;5.454;2023-02-03T04:31:33;102372.44;;;9.92;75.22
59029;BME280;45919;51.420;5.454;2023-02-03T04:32:34;102385.59;;;9.96;75.42
59029;BME280;45919;51.420;5.454;2023-02-03T04:33:36;102378.66;;;9.96;75.59
59029;BME280;45919;51.420;5.454;2023-02-03T04:34:37;102383.88;;;9.96;75.51
59029;BME280;45919;51.420;5.454;2023-02-03T04:35:39;102385.69;;;9.97;75.43
59029;BME280;45919;51.420;5.454;2023-02-03T04:36:40;102386.50;;;9.96;75.43
59029;BME280;45919;51.420;5.454;2023-02-03T04:37:42;102388.22;;;9.96;75.28
59029;BME280;45919;51.420;5.454;2023-02-03T04:38:43;102390.91;;;9.97;75.31
59029;BME280;45919;51.420;5.454;2023-02-03T04:39:45;102393.44;;;9.96;75.31
59029;BME280;45919;51.420;5.454;2023-02-03T04:40:46;102397.84;;;9.97;75.16
59029;BME280;45919;51.420;5.454;2023-02-03T04:41:48;102393.44;;;9.96;75.30
59029;BME280;45919;51.420;5.454;2023-02-03T04:42:49;102396.88;;;9.95;75.33
59029;BME280;45919;51.420;5.454;2023-02-03T04:43:51;102393.38;;;9.94;75.53
59029;BME280;45919;51.420;5.454;2023-02-03T04:44:52;102390.75;;;9.94;75.50
59029;BME280;45919;51.420;5.454;2023-02-03T04:45:54;102376.91;;;9.95;75.55
59029;BME280;45919;51.420;5.454;2023-02-03T04:46:55;102384.72;;;9.95;75.83
59029;BME280;45919;51.420;5.454;2023-02-03T04:47:57;102384.00;;;9.99;75.52
59029;BME280;45919;51.420;5.454;2023-02-03T04:48:58;102387.53;;;10.00;75.46
59029;BME280;45919;51.420;5.454;2023-02-03T04:50:00;102387.53;;;10.00;75.56
59029;BME280;45919;51.420;5.454;2023-02-03T04:51:05;102392.81;;;10.01;75.19
59029;BME280;45919;51.420;5.454;2023-02-03T04:52:06;102397.16;;;10.01;75.45
59029;BME280;45919;51.420;5.454;2023-02-03T04:53:08;102391.94;;;10.01;75.34
59029;BME280;45919;51.420;5.454;2023-02-03T04:54:10;102388.50;;;10.02;75.14
59029;BME280;45919;51.420;5.454;2023-02-03T04:55:11;102382.38;;;10.01;75.19
59029;BME280;45919;51.420;5.454;2023-02-03T04:56:13;102377.13;;;10.01;75.11
59029;BME280;45919;51.420;5.454;2023-02-03T04:57:16;102371.16;;;10.04;75.20
59029;BME280;45919;51.420;5.454;2023-02-03T04:58:17;102374.47;;;10.00;74.96
59029;BME280;45919;51.420;5.454;2023-02-03T04:59:19;102378.03;;;10.02;75.10
59029;BME280;45919;51.420;5.454;2023-02-03T05:00:20;102376.44;;;10.05;75.07
59029;BME280;45919;51.420;5.454;2023-02-03T05:01:22;102366.84;;;10.04;75.06
59029;BME280;45919;51.420;5.454;2023-02-03T05:02:23;102377.28;;;10.04;74.89
59029;BME280;45919;51.420;5.454;2023-02-03T05:03:25;102369.38;;;10.03;74.74
59029;BME280;45919;51.420;5.454;2023-02-03T05:04:26;102371.09;;;10.02;75.07
59029;BME280;45919;51.420;5.454;2023-02-03T05:05:28;102365.88;;;10.02;74.90
59029;BME280;45919;51.420;5.454;2023-02-03T05:06:29;102374.47;;;10.00;75.05
59029;BME280;45919;51.420;5.454;2023-02-03T05:07:32;102371.91;;;10.01;75.29
59029;BME280;45919;51.420;5.454;2023-02-03T05:08:33;102362.44;;;10.03;75.10
59029;BME280;45919;51.420;5.454;2023-02-03T05:09:35;102356.41;;;10.04;74.97
59029;BME280;45919;51.420;5.454;2023-02-03T05:10:36;102357.22;;;10.03;74.80
59029;BME280;45919;51.420;5.454;2023-02-03T05:11:38;102353.69;;;10.03;74.95
59029;BME280;45919;51.420;5.454;2023-02-03T05:12:39;102349.25;;;10.00;74.95
59029;BME280;45919;51.420;5.454;2023-02-03T05:13:41;102345.75;;;10.00;75.13
59029;BME280;45919;51.420;5.454;2023-02-03T05:14:42;102348.47;;;10.03;74.95
59029;BME280;45919;51.420;5.454;2023-02-03T05:15:44;102355.44;;;10.02;74.79
59029;BME280;45919;51.420;5.454;2023-02-03T05:16:45;102357.22;;;10.03;74.78
59029;BME280;45919;51.420;5.454;2023-02-03T05:17:47;102361.47;;;10.01;74.89
59029;BME280;45919;51.420;5.454;2023-02-03T05:18:49;102356.13;;;9.98;75.08
59029;BME280;45919;51.420;5.454;2023-02-03T05:19:51;102357.91;;;9.99;75.15
59029;BME280;45919;51.420;5.454;2023-02-03T05:20:52;102366.69;;;10.01;75.03
59029;BME280;45919;51.420;5.454;2023-02-03T05:21:53;102362.31;;;10.00;74.95
59029;BME280;45919;51.420;5.454;2023-02-03T05:22:56;102366.63;;;10.00;74.97
59029;BME280;45919;51.420;5.454;2023-02-03T05:23:57;102369.25;;;10.00;74.86
59029;BME280;45919;51.420;5.454;2023-02-03T05:25:00;102360.59;;;10.01;74.81
59029;BME280;45919;51.420;5.454;2023-02-03T05:26:02;102360.84;;;10.07;74.40
59029;BME280;45919;51.420;5.454;2023-02-03T05:27:04;102378.16;;;10.05;74.68
59029;BME280;45919;51.420;5.454;2023-02-03T05:28:05;102381.72;;;10.07;74.63
59029;BME280;45919;51.420;5.454;2023-02-03T05:29:07;102386.00;;;10.05;74.51
59029;BME280;45919;51.420;5.454;2023-02-03T05:30:10;102381.69;;;10.05;74.70
59029;BME280;45919;51.420;5.454;2023-02-03T05:31:11;102368.56;;;10.04;74.43
59029;BME280;45919;51.420;5.454;2023-02-03T05:32:13;102366.84;;;10.04;74.59
59029;BME280;45919;51.420;5.454;2023-02-03T05:33:15;102378.94;;;10.02;74.71
59029;BME280;45919;51.420;5.454;2023-02-03T05:34:16;102381.63;;;10.04;74.59
59029;BME280;45919;51.420;5.454;2023-02-03T05:35:17;102386.91;;;10.05;74.56
59029;BME280;45919;51.420;5.454;2023-02-03T05:36:19;102381.56;;;10.02;74.42
59029;BME280;45919;51.420;5.454;2023-02-03T05:37:20;102382.41;;;10.03;74.53
59029;BME280;45919;51.420;5.454;2023-02-03T05:38:22;102389.44;;;10.04;74.27
59029;BME280;45919;51.420;5.454;2023-02-03T05:39:25;102393.81;;;10.05;74.36
59029;BME280;45919;51.420;5.454;2023-02-03T05:40:26;102389.44;;;10.04;74.47
59029;BME280;45919;51.420;5.454;2023-02-03T05:41:46;102392.97;;;10.04;74.06
59029;BME280;45919;51.420;5.454;2023-02-03T05:42:53;102398.03;;;10.01;74.37
59029;BME280;45919;51.420;5.454;2023-02-03T05:43:55;102404.16;;;10.02;74.68
59029;BME280;45919;51.420;5.454;2023-02-03T05:44:57;102404.16;;;10.02;74.68
59029;BME280;45919;51.420;5.454;2023-02-03T05:45:59;102400.69;;;10.03;74.56
59029;BME280;45919;51.420;5.454;2023-02-03T05:47:01;102398.03;;;10.01;74.53
59029;BME280;45919;51.420;5.454;2023-02-03T05:48:02;102399.88;;;10.04;74.60
59029;BME280;45919;51.420;5.454;2023-02-03T05:49:04;102401.59;;;10.03;74.59
59029;BME280;45919;51.420;5.454;2023-02-03T05:50:06;102405.84;;;10.01;74.39
59029;BME280;45919;51.420;5.454;2023-02-03T05:51:07;102406.69;;;10.00;74.64
59029;BME280;45919;51.420;5.454;2023-02-03T05:52:09;102397.16;;;10.01;74.56
59029;BME280;45919;51.420;5.454;2023-02-03T05:53:10;102404.22;;;10.03;74.45
59029;BME280;45919;51.420;5.454;2023-02-03T05:54:12;102399.06;;;10.05;74.31
59029;BME280;45919;51.420;5.454;2023-02-03T05:55:13;102393.78;;;10.03;74.52